sensor_id;sensor_type;location;lat;lon;timestamp;P1;durP1;ratioP1;P2;durP2;ratioP2
5981;SDS011;3018;48.730;9.336;2023-11-21T00:02:20;9.95;;;3.70;;
5981;SDS011;3018;48.730;9.336;2023-11-21T00:04:47;10.75;;;3.60;;
5981;SDS011;3018;48.730;9.336;2023-11-21T00:07:13;6.28;;;3.28;;
5981;SDS011;3018;48.730;9.336;2023-11-21T00:09:40;8.52;;;2.72;;
5981;SDS011;3018;48.730;9.336;2023-11-21T00:12:08;7.10;;;3.17;;
5981;SDS011;3018;48.730;9.336;2023-11-21T00:14:35;5.18;;;2.97;;
5981;SDS011;3018;48.730;9.336;2023-11-21T00:17:01;7.95;;;3.33;;
5981;SDS011;3018;48.730;9.336;2023-11-21T00:19:27;5.30;;;2.83;;
5981;SDS011;3018;48.730;9.336;2023-11-21T00:21:54;8.35;;;3.13;;
5981;SDS011;3018;48.730;9.336;2023-11-21T00:24:20;8.75;;;3.33;;
5981;SDS011;3018;48.730;9.336;2023-11-21T00:26:46;9.73;;;3.05;;
5981;SDS011;3018;48.730;9.336;2023-11-21T00:29:14;4.60;;;3.30;;
5981;SDS011;3018;48.730;9.336;2023-11-21T00:31:42;6.65;;;3.20;;
5981;SDS011;3018;48.730;9.336;2023-11-21T00:34:08;5.10;;;3.13;;
5981;SDS011;3018;48.730;9.336;2023-11-21T00:36:35;11.88;;;3.08;;
5981;SDS011;3018;48.730;9.336;2023-11-21T00:39:01;4.63;;;2.88;;
5981;SDS011;3018;48.730;9.336;2023-11-21T00:41:28;8.52;;;3.00;;
5981;SDS011;3018;48.730;9.336;2023-11-21T00:43:55;6.82;;;3.40;;
5981;SDS011;3018;48.730;9.336;2023-11-21T00:46:22;8.80;;;3.05;;
5981;SDS011;3018;48.730;9.336;2023-11-21T00:48:49;7.22;;;2.85;;
5981;SDS011;3018;48.730;9.336;2023-11-21T00:51:15;6.68;;;2.60;;
5981;SDS011;3018;48.730;9.336;2023-11-21T00:53:41;4.78;;;2.90;;
5981;SDS011;3018;48.730;9.336;2023-11-21T00:56:08;6.80;;;2.85;;
5981;SDS011;3018;48.730;9.336;2023-11-21T00:58:34;8.15;;;2.83;;
5981;SDS011;3018;48.730;9.336;2023-11-21T01:01:00;4.43;;;2.83;;
5981;SDS011;3018;48.730;9.336;2023-11-21T01:03:29;9.18;;;3.10;;
5981;SDS011;3018;48.730;9.336;2023-11-21T01:05:56;5.80;;;2.60;;
5981;SDS011;3018;48.730;9.336;2023-11-21T01:08:22;5.43;;;2.40;;
5981;SDS011;3018;48.730;9.336;2023-11-21T01:10:49;7.28;;;2.30;;
5981;SDS011;3018;48.730;9.336;2023-11-21T01:13:15;7.55;;;2.40;;
5981;SDS011;3018;48.730;9.336;2023-11-21T01:15:41;5.85;;;2.28;;
5981;SDS011;3018;48.730;9.336;2023-11-21T01:18:08;4.45;;;2.58;;
5981;SDS011;3018;48.730;9.336;2023-11-21T01:20:35;7.88;;;2.40;;
5981;SDS011;3018;48.730;9.336;2023-11-21T01:23:02;6.00;;;2.10;;
5981;SDS011;3018;48.730;9.336;2023-11-21T01:25:28;4.25;;;1.98;;
5981;SDS011;3018;48.730;9.336;2023-11-21T01:27:54;3.97;;;1.88;;
5981;SDS011;3018;48.730;9.336;2023-11-21T01:30:20;4.07;;;2.03;;
5981;SDS011;3018;48.730;9.336;2023-11-21T01:32:47;3.65;;;1.98;;
5981;SDS011;3018;48.730;9.336;2023-11-21T01:35:13;3.97;;;1.60;;
5981;SDS011;3018;48.730;9.336;2023-11-21T01:37:41;4.32;;;1.98;;
5981;SDS011;3018;48.730;9.336;2023-11-21T01:40:07;5.90;;;2.05;;
5981;SDS011;3018;48.730;9.336;2023-11-21T01:42:38;6.30;;;1.80;;
5981;SDS011;3018;48.730;9.336;2023-11-21T01:45:05;5.50;;;1.67;;
5981;SDS011;3018;48.730;9.336;2023-11-21T01:47:31;6.20;;;1.73;;
5981;SDS011;3018;48.730;9.336;2023-11-21T01:49:58;4.47;;;1.60;;
5981;SDS011;3018;48.730;9.336;2023-11-21T01:52:24;3.03;;;1.33;;
5981;SDS011;3018;48.730;9.336;2023-11-21T01:54:52;4.00;;;1.48;;
5981;SDS011;3018;48.730;9.336;2023-11-21T01:57:19;2.80;;;1.52;;
5981;SDS011;3018;48.730;9.336;2023-11-21T01:59:46;1.67;;;1.52;;
5981;SDS011;3018;48.730;9.336;2023-11-21T02:02:13;3.08;;;1.33;;
5981;SDS011;3018;48.730;9.336;2023-11-21T02:04:41;2.05;;;1.30;;
5981;SDS011;3018;48.730;9.336;2023-11-21T02:07:07;2.22;;;1.30;;
5981;SDS011;3018;48.730;9.336;2023-11-21T02:09:35;2.25;;;1.13;;
5981;SDS011;3018;48.730;9.336;2023-11-21T02:12:05;5.97;;;1.23;;
5981;SDS011;3018;48.730;9.336;2023-11-21T02:14:32;3.63;;;1.60;;
5981;SDS011;3018;48.730;9.336;2023-11-21T02:16:58;4.30;;;1.20;;
5981;SDS011;3018;48.730;9.336;2023-11-21T02:19:25;2.53;;;1.10;;
5981;SDS011;3018;48.730;9.336;2023-11-21T02:21:53;2.33;;;1.25;;
5981;SDS011;3018;48.730;9.336;2023-11-21T02:24:21;1.77;;;1.30;;
5981;SDS011;3018;48.730;9.336;2023-11-21T02:26:47;3.53;;;0.95;;
5981;SDS011;3018;48.730;9.336;2023-11-21T02:29:16;5.97;;;1.20;;
5981;SDS011;3018;48.730;9.336;2023-11-21T02:31:43;3.25;;;1.10;;
5981;SDS011;3018;48.730;9.336;2023-11-21T02:34:13;1.90;;;0.95;;
5981;SDS011;3018;48.730;9.336;2023-11-21T02:36:40;1.63;;;0.93;;
5981;SDS011;3018;48.730;9.336;2023-11-21T02:39:07;1.95;;;1.00;;
5981;SDS011;3018;48.730;9.336;2023-11-21T02:41:35;2.78;;;1.20;;
5981;SDS011;3018;48.730;9.336;2023-11-21T02:44:01;2.65;;;1.05;;
5981;SDS011;3018;48.730;9.336;2023-11-21T02:46:27;3.10;;;1.17;;
5981;SDS011;3018;48.730;9.336;2023-11-21T02:48:53;1.05;;;0.98;;
5981;SDS011;3018;48.730;9.336;2023-11-21T02:51:20;2.47;;;1.17;;
5981;SDS011;3018;48.730;9.336;2023-11-21T02:53:46;2.05;;;1.10;;
5981;SDS011;3018;48.730;9.336;2023-11-21T02:56:12;3.35;;;1.40;;
5981;SDS011;3018;48.730;9.336;2023-11-21T02:58:42;3.50;;;1.33;;
5981;SDS011;3018;48.730;9.336;2023-11-21T03:01:08;2.25;;;0.88;;
5981;SDS011;3018;48.730;9.336;2023-11-21T03:03:35;7.45;;;1.00;;
5981;SDS011;3018;48.730;9.336;2023-11-21T03:06:05;3.20;;;1.10;;
5981;SDS011;3018;48.730;9.336;2023-11-21T03:08:31;2.53;;;1.00;;
5981;SDS011;3018;48.730;9.336;2023-11-21T03:10:58;9.65;;;1.10;;
5981;SDS011;3018;48.730;9.336;2023-11-21T03:13:24;0.90;;;0.90;;
5981;SDS011;3018;48.730;9.336;2023-11-21T03:15:52;5.50;;;1.00;;
5981;SDS011;3018;48.730;9.336;2023-11-21T03:18:18;1.00;;;0.80;;
5981;SDS011;3018;48.730;9.336;2023-11-21T03:20:47;3.40;;;0.95;;
5981;SDS011;3018;48.730;9.336;2023-11-21T03:23:13;0.82;;;0.80;;
5981;SDS011;3018;48.730;9.336;2023-11-21T03:25:40;3.97;;;0.90;;
5981;SDS011;3018;48.730;9.336;2023-11-21T03:28:06;0.90;;;0.77;;
5981;SDS011;3018;48.730;9.336;2023-11-21T03:30:33;1.52;;;0.80;;
5981;SDS011;3018;48.730;9.336;2023-11-21T03:33:01;1.50;;;0.82;;
5981;SDS011;3018;48.730;9.336;2023-11-21T03:35:27;1.02;;;0.80;;
5981;SDS011;3018;48.730;9.336;2023-11-21T03:37:53;2.05;;;0.80;;
5981;SDS011;3018;48.730;9.336;2023-11-21T03:40:20;1.77;;;0.60;;
5981;SDS011;3018;48.730;9.336;2023-11-21T03:42:46;1.83;;;0.80;;
5981;SDS011;3018;48.730;9.336;2023-11-21T03:45:13;1.67;;;0.80;;
5981;SDS011;3018;48.730;9.336;2023-11-21T03:47:39;2.35;;;0.80;;
5981;SDS011;3018;48.730;9.336;2023-11-21T03:50:07;0.55;;;0.50;;
5981;SDS011;3018;48.730;9.336;2023-11-21T03:52:34;1.15;;;0.70;;
5981;SDS011;3018;48.730;9.336;2023-11-21T03:55:01;1.88;;;0.70;;
5981;SDS011;3018;48.730;9.336;2023-11-21T03:57:27;1.80;;;0.80;;
5981;SDS011;3018;48.730;9.336;2023-11-21T03:59:53;2.50;;;0.80;;
5981;SDS011;3018;48.730;9.336;2023-11-21T04:02:20;2.15;;;0.80;;
5981;SDS011;3018;48.730;9.336;2023-11-21T04:04:46;0.70;;;0.60;;
5981;SDS011;3018;48.730;9.336;2023-11-21T04:07:14;3.67;;;0.90;;
5981;SDS011;3018;48.730;9.336;2023-11-21T04:09:40;2.72;;;0.60;;
5981;SDS011;3018;48.730;9.336;2023-11-21T04:12:06;1.13;;;0.80;;
5981;SDS011;3018;48.730;9.336;2023-11-21T04:14:34;0.70;;;0.70;;
5981;SDS011;3018;48.730;9.336;2023-11-21T04:17:00;1.95;;;1.10;;
5981;SDS011;3018;48.730;9.336;2023-11-21T04:19:26;1.45;;;0.95;;
5981;SDS011;3018;48.730;9.336;2023-11-21T04:21:52;1.30;;;0.70;;
5981;SDS011;3018;48.730;9.336;2023-11-21T04:24:20;1.70;;;0.88;;
5981;SDS011;3018;48.730;9.336;2023-11-21T04:26:46;0.80;;;0.80;;
5981;SDS011;3018;48.730;9.336;2023-11-21T04:29:12;2.75;;;1.10;;
5981;SDS011;3018;48.730;9.336;2023-11-21T04:31:39;2.83;;;1.10;;
5981;SDS011;3018;48.730;9.336;2023-11-21T04:34:06;3.20;;;1.10;;
5981;SDS011;3018;48.730;9.336;2023-11-21T04:36:33;3.35;;;1.00;;
5981;SDS011;3018;48.730;9.336;2023-11-21T04:38:59;2.30;;;1.02;;
5981;SDS011;3018;48.730;9.336;2023-11-21T04:41:27;2.60;;;1.23;;
5981;SDS011;3018;48.730;9.336;2023-11-21T04:43:53;1.10;;;0.80;;
5981;SDS011;3018;48.730;9.336;2023-11-21T04:46:20;3.88;;;0.82;;
5981;SDS011;3018;48.730;9.336;2023-11-21T04:48:46;1.08;;;0.80;;
5981;SDS011;3018;48.730;9.336;2023-11-21T04:51:13;0.88;;;0.77;;
5981;SDS011;3018;48.730;9.336;2023-11-21T04:53:39;2.00;;;0.73;;
5981;SDS011;3018;48.730;9.336;2023-11-21T04:56:06;2.15;;;0.70;;
5981;SDS011;3018;48.730;9.336;2023-11-21T04:58:33;1.30;;;0.70;;
5981;SDS011;3018;48.730;9.336;2023-11-21T05:01:00;1.88;;;0.82;;
5981;SDS011;3018;48.730;9.336;2023-11-21T05:03:26;1.63;;;0.77;;
5981;SDS011;3018;48.730;9.336;2023-11-21T05:05:54;1.27;;;0.70;;
5981;SDS011;3018;48.730;9.336;2023-11-21T05:08:21;0.63;;;0.60;;
5981;SDS011;3018;48.730;9.336;2023-11-21T05:10:47;0.60;;;0.60;;
5981;SDS011;3018;48.730;9.336;2023-11-21T05:13:14;2.78;;;0.70;;
5981;SDS011;3018;48.730;9.336;2023-11-21T05:15:43;1.95;;;0.60;;
5981;SDS011;3018;48.730;9.336;2023-11-21T05:18:10;2.10;;;0.90;;
5981;SDS011;3018;48.730;9.336;2023-11-21T05:20:36;1.42;;;0.82;;
5981;SDS011;3018;48.730;9.336;2023-11-21T05:23:04;0.70;;;0.70;;
5981;SDS011;3018;48.730;9.336;2023-11-21T05:25:30;2.60;;;1.15;;
5981;SDS011;3018;48.730;9.336;2023-11-21T05:27:57;5.30;;;2.40;;
5981;SDS011;3018;48.730;9.336;2023-11-21T05:30:26;4.30;;;2.42;;
5981;SDS011;3018;48.730;9.336;2023-11-21T05:32:54;3.60;;;2.25;;
5981;SDS011;3018;48.730;9.336;2023-11-21T05:35:20;4.75;;;2.58;;
5981;SDS011;3018;48.730;9.336;2023-11-21T05:37:46;4.13;;;2.47;;
5981;SDS011;3018;48.730;9.336;2023-11-21T05:40:13;5.43;;;2.58;;
5981;SDS011;3018;48.730;9.336;2023-11-21T05:42:39;5.25;;;2.30;;
5981;SDS011;3018;48.730;9.336;2023-11-21T05:45:06;5.07;;;2.10;;
5981;SDS011;3018;48.730;9.336;2023-11-21T05:47:35;3.75;;;1.60;;
5981;SDS011;3018;48.730;9.336;2023-11-21T05:50:03;3.15;;;1.35;;
5981;SDS011;3018;48.730;9.336;2023-11-21T05:52:30;1.80;;;0.70;;
5981;SDS011;3018;48.730;9.336;2023-11-21T05:54:57;1.52;;;0.70;;
5981;SDS011;3018;48.730;9.336;2023-11-21T05:57:23;1.60;;;0.65;;
5981;SDS011;3018;48.730;9.336;2023-11-21T05:59:50;2.75;;;0.70;;
5981;SDS011;3018;48.730;9.336;2023-11-21T06:02:16;1.20;;;0.60;;
5981;SDS011;3018;48.730;9.336;2023-11-21T06:04:43;2.45;;;0.80;;
5981;SDS011;3018;48.730;9.336;2023-11-21T06:07:11;1.30;;;0.68;;
5981;SDS011;3018;48.730;9.336;2023-11-21T06:09:37;3.55;;;0.80;;
5981;SDS011;3018;48.730;9.336;2023-11-21T06:12:03;1.02;;;0.95;;
5981;SDS011;3018;48.730;9.336;2023-11-21T06:14:30;2.45;;;1.30;;
5981;SDS011;3018;48.730;9.336;2023-11-21T06:16:58;2.15;;;1.30;;
5981;SDS011;3018;48.730;9.336;2023-11-21T06:19:24;3.25;;;1.02;;
5981;SDS011;3018;48.730;9.336;2023-11-21T06:21:50;5.47;;;1.20;;
5981;SDS011;3018;48.730;9.336;2023-11-21T06:27:18;2.78;;;0.90;;
5981;SDS011;3018;48.730;9.336;2023-11-21T06:29:44;1.45;;;1.08;;
5981;SDS011;3018;48.730;9.336;2023-11-21T06:32:11;2.38;;;1.30;;
5981;SDS011;3018;48.730;9.336;2023-11-21T06:34:37;1.23;;;0.95;;
5981;SDS011;3018;48.730;9.336;2023-11-21T06:37:03;1.25;;;1.15;;
5981;SDS011;3018;48.730;9.336;2023-11-21T06:39:30;0.93;;;0.90;;
5981;SDS011;3018;48.730;9.336;2023-11-21T06:41:56;1.55;;;0.95;;
5981;SDS011;3018;48.730;9.336;2023-11-21T06:44:26;1.95;;;0.98;;
5981;SDS011;3018;48.730;9.336;2023-11-21T06:46:52;3.97;;;0.70;;
5981;SDS011;3018;48.730;9.336;2023-11-21T06:49:18;0.75;;;0.75;;
5981;SDS011;3018;48.730;9.336;2023-11-21T06:51:44;1.55;;;0.65;;
5981;SDS011;3018;48.730;9.336;2023-11-21T06:54:11;2.88;;;0.73;;
5981;SDS011;3018;48.730;9.336;2023-11-21T06:56:37;2.53;;;0.82;;
5981;SDS011;3018;48.730;9.336;2023-11-21T06:59:04;4.57;;;0.63;;
5981;SDS011;3018;48.730;9.336;2023-11-21T07:01:32;0.82;;;0.77;;
5981;SDS011;3018;48.730;9.336;2023-11-21T07:04:04;3.22;;;0.80;;
5981;SDS011;3018;48.730;9.336;2023-11-21T07:06:30;5.30;;;1.02;;
5981;SDS011;3018;48.730;9.336;2023-11-21T07:08:56;1.63;;;1.45;;
5981;SDS011;3018;48.730;9.336;2023-11-21T07:11:23;4.97;;;1.55;;
5981;SDS011;3018;48.730;9.336;2023-11-21T07:13:50;3.75;;;1.60;;
5981;SDS011;3018;48.730;9.336;2023-11-21T07:16:17;3.72;;;1.88;;
5981;SDS011;3018;48.730;9.336;2023-11-21T07:18:45;3.70;;;2.03;;
5981;SDS011;3018;48.730;9.336;2023-11-21T07:21:11;2.80;;;2.00;;
5981;SDS011;3018;48.730;9.336;2023-11-21T07:23:38;2.08;;;1.73;;
5981;SDS011;3018;48.730;9.336;2023-11-21T07:26:04;3.88;;;1.75;;
5981;SDS011;3018;48.730;9.336;2023-11-21T07:28:34;1.90;;;1.80;;
5981;SDS011;3018;48.730;9.336;2023-11-21T07:31:00;1.15;;;1.15;;
5981;SDS011;3018;48.730;9.336;2023-11-21T07:33:26;1.83;;;1.67;;
5981;SDS011;3018;48.730;9.336;2023-11-21T07:35:54;4.18;;;1.52;;
5981;SDS011;3018;48.730;9.336;2023-11-21T07:38:20;2.53;;;0.88;;
5981;SDS011;3018;48.730;9.336;2023-11-21T07:40:47;1.88;;;1.05;;
5981;SDS011;3018;48.730;9.336;2023-11-21T07:43:13;1.10;;;1.10;;
5981;SDS011;3018;48.730;9.336;2023-11-21T07:45:39;0.85;;;0.85;;
5981;SDS011;3018;48.730;9.336;2023-11-21T07:48:06;1.08;;;0.80;;
5981;SDS011;3018;48.730;9.336;2023-11-21T07:50:32;1.25;;;1.00;;
5981;SDS011;3018;48.730;9.336;2023-11-21T07:52:59;0.93;;;0.93;;
5981;SDS011;3018;48.730;9.336;2023-11-21T07:55:26;0.90;;;0.90;;
5981;SDS011;3018;48.730;9.336;2023-11-21T07:57:52;0.80;;;0.80;;
5981;SDS011;3018;48.730;9.336;2023-11-21T08:00:24;1.55;;;0.80;;
5981;SDS011;3018;48.730;9.336;2023-11-21T08:02:55;0.82;;;0.80;;
5981;SDS011;3018;48.730;9.336;2023-11-21T08:05:21;1.40;;;1.00;;
5981;SDS011;3018;48.730;9.336;2023-11-21T08:07:47;2.40;;;1.00;;
5981;SDS011;3018;48.730;9.336;2023-11-21T08:10:24;1.17;;;0.80;;
5981;SDS011;3018;48.730;9.336;2023-11-21T08:12:51;0.80;;;0.80;;
5981;SDS011;3018;48.730;9.336;2023-11-21T08:15:18;2.83;;;0.90;;
5981;SDS011;3018;48.730;9.336;2023-11-21T08:17:44;1.13;;;1.13;;
5981;SDS011;3018;48.730;9.336;2023-11-21T08:20:11;1.40;;;1.15;;
5981;SDS011;3018;48.730;9.336;2023-11-21T08:22:37;2.47;;;0.70;;
5981;SDS011;3018;48.730;9.336;2023-11-21T08:25:06;2.78;;;1.00;;
5981;SDS011;3018;48.730;9.336;2023-11-21T08:27:34;1.33;;;1.20;;
5981;SDS011;3018;48.730;9.336;2023-11-21T08:30:09;1.55;;;1.42;;
5981;SDS011;3018;48.730;9.336;2023-11-21T08:32:36;2.08;;;1.35;;
5981;SDS011;3018;48.730;9.336;2023-11-21T08:35:02;2.85;;;1.52;;
5981;SDS011;3018;48.730;9.336;2023-11-21T08:37:29;1.80;;;1.00;;
5981;SDS011;3018;48.730;9.336;2023-11-21T08:39:58;3.40;;;1.50;;
5981;SDS011;3018;48.730;9.336;2023-11-21T08:42:24;1.50;;;1.35;;
5981;SDS011;3018;48.730;9.336;2023-11-21T08:44:56;1.20;;;1.10;;
5981;SDS011;3018;48.730;9.336;2023-11-21T08:47:22;0.90;;;0.90;;
5981;SDS011;3018;48.730;9.336;2023-11-21T08:49:49;2.53;;;1.05;;
5981;SDS011;3018;48.730;9.336;2023-11-21T08:52:18;1.08;;;0.90;;
5981;SDS011;3018;48.730;9.336;2023-11-21T08:54:45;1.15;;;0.85;;
5981;SDS011;3018;48.730;9.336;2023-11-21T08:57:12;1.15;;;0.70;;
5981;SDS011;3018;48.730;9.336;2023-11-21T08:59:39;0.93;;;0.88;;
5981;SDS011;3018;48.730;9.336;2023-11-21T09:02:06;1.48;;;0.80;;
5981;SDS011;3018;48.730;9.336;2023-11-21T09:04:33;1.15;;;0.80;;
5981;SDS011;3018;48.730;9.336;2023-11-21T09:06:59;2.85;;;0.90;;
5981;SDS011;3018;48.730;9.336;2023-11-21T09:09:25;1.85;;;0.82;;
5981;SDS011;3018;48.730;9.336;2023-11-21T09:11:51;0.98;;;0.80;;
5981;SDS011;3018;48.730;9.336;2023-11-21T09:14:18;2.05;;;0.82;;
5981;SDS011;3018;48.730;9.336;2023-11-21T09:16:44;2.35;;;0.98;;
5981;SDS011;3018;48.730;9.336;2023-11-21T09:19:12;1.50;;;0.98;;
5981;SDS011;3018;48.730;9.336;2023-11-21T09:21:39;1.35;;;1.10;;
5981;SDS011;3018;48.730;9.336;2023-11-21T09:24:05;3.10;;;0.90;;
5981;SDS011;3018;48.730;9.336;2023-11-21T09:26:34;1.92;;;1.10;;
5981;SDS011;3018;48.730;9.336;2023-11-21T09:29:00;1.00;;;1.00;;
5981;SDS011;3018;48.730;9.336;2023-11-21T09:31:27;2.30;;;1.05;;
5981;SDS011;3018;48.730;9.336;2023-11-21T09:33:53;1.02;;;1.02;;
5981;SDS011;3018;48.730;9.336;2023-11-21T09:36:21;1.00;;;1.00;;
5981;SDS011;3018;48.730;9.336;2023-11-21T09:38:51;1.30;;;1.20;;
5981;SDS011;3018;48.730;9.336;2023-11-21T09:41:21;1.95;;;1.40;;
5981;SDS011;3018;48.730;9.336;2023-11-21T09:43:49;1.90;;;1.30;;
5981;SDS011;3018;48.730;9.336;2023-11-21T09:46:18;3.28;;;1.27;;
5981;SDS011;3018;48.730;9.336;2023-11-21T09:48:47;1.25;;;1.20;;
5981;SDS011;3018;48.730;9.336;2023-11-21T09:51:16;2.20;;;1.27;;
5981;SDS011;3018;48.730;9.336;2023-11-21T09:53:46;2.60;;;1.42;;
5981;SDS011;3018;48.730;9.336;2023-11-21T09:56:14;2.67;;;0.95;;
5981;SDS011;3018;48.730;9.336;2023-11-21T09:58:44;3.33;;;1.23;;
5981;SDS011;3018;48.730;9.336;2023-11-21T10:01:10;1.15;;;1.08;;
5981;SDS011;3018;48.730;9.336;2023-11-21T10:03:37;1.60;;;1.20;;
5981;SDS011;3018;48.730;9.336;2023-11-21T10:06:04;1.20;;;1.10;;
5981;SDS011;3018;48.730;9.336;2023-11-21T10:08:30;1.88;;;0.90;;
5981;SDS011;3018;48.730;9.336;2023-11-21T10:10:59;2.08;;;1.48;;
5981;SDS011;3018;48.730;9.336;2023-11-21T10:13:25;2.88;;;1.38;;
5981;SDS011;3018;48.730;9.336;2023-11-21T10:15:55;1.17;;;1.17;;
5981;SDS011;3018;48.730;9.336;2023-11-21T10:18:22;1.95;;;1.00;;
5981;SDS011;3018;48.730;9.336;2023-11-21T10:20:50;5.28;;;1.13;;
5981;SDS011;3018;48.730;9.336;2023-11-21T10:23:18;1.75;;;1.00;;
5981;SDS011;3018;48.730;9.336;2023-11-21T10:25:44;0.90;;;0.90;;
5981;SDS011;3018;48.730;9.336;2023-11-21T10:28:12;3.22;;;1.02;;
5981;SDS011;3018;48.730;9.336;2023-11-21T10:30:38;1.05;;;0.80;;
5981;SDS011;3018;48.730;9.336;2023-11-21T10:33:05;2.17;;;0.82;;
5981;SDS011;3018;48.730;9.336;2023-11-21T10:35:44;1.65;;;0.73;;
5981;SDS011;3018;48.730;9.336;2023-11-21T10:38:16;0.93;;;0.93;;
5981;SDS011;3018;48.730;9.336;2023-11-21T10:40:42;0.93;;;0.93;;
5981;SDS011;3018;48.730;9.336;2023-11-21T10:43:09;2.40;;;0.80;;
5981;SDS011;3018;48.730;9.336;2023-11-21T10:45:37;1.00;;;1.00;;
5981;SDS011;3018;48.730;9.336;2023-11-21T10:48:05;2.55;;;0.93;;
5981;SDS011;3018;48.730;9.336;2023-11-21T10:50:32;0.80;;;0.80;;
5981;SDS011;3018;48.730;9.336;2023-11-21T10:53:00;0.95;;;0.90;;
5981;SDS011;3018;48.730;9.336;2023-11-21T10:55:27;0.82;;;0.82;;
5981;SDS011;3018;48.730;9.336;2023-11-21T10:57:54;0.95;;;0.95;;
5981;SDS011;3018;48.730;9.336;2023-11-21T11:00:20;1.13;;;0.90;;
5981;SDS011;3018;48.730;9.336;2023-11-21T11:02:51;2.40;;;1.00;;
5981;SDS011;3018;48.730;9.336;2023-11-21T11:05:19;2.45;;;0.65;;
5981;SDS011;3018;48.730;9.336;2023-11-21T11:07:46;0.73;;;0.60;;
5981;SDS011;3018;48.730;9.336;2023-11-21T11:10:14;0.45;;;0.45;;
5981;SDS011;3018;48.730;9.336;2023-11-21T11:12:40;0.60;;;0.60;;
5981;SDS011;3018;48.730;9.336;2023-11-21T11:15:07;0.50;;;0.50;;
5981;SDS011;3018;48.730;9.336;2023-11-21T11:17:34;1.40;;;0.70;;
5981;SDS011;3018;48.730;9.336;2023-11-21T11:20:02;1.63;;;0.70;;
5981;SDS011;3018;48.730;9.336;2023-11-21T11:22:34;0.65;;;0.65;;
5981;SDS011;3018;48.730;9.336;2023-11-21T11:25:06;0.65;;;0.50;;
5981;SDS011;3018;48.730;9.336;2023-11-21T11:27:40;1.20;;;0.60;;
5981;SDS011;3018;48.730;9.336;2023-11-21T11:30:11;0.77;;;0.77;;
5981;SDS011;3018;48.730;9.336;2023-11-21T11:32:43;0.50;;;0.50;;
5981;SDS011;3018;48.730;9.336;2023-11-21T11:35:17;0.75;;;0.70;;
5981;SDS011;3018;48.730;9.336;2023-11-21T11:37:45;2.05;;;1.10;;
5981;SDS011;3018;48.730;9.336;2023-11-21T11:40:12;2.55;;;2.40;;
5981;SDS011;3018;48.730;9.336;2023-11-21T11:42:38;2.75;;;2.22;;
5981;SDS011;3018;48.730;9.336;2023-11-21T11:45:16;2.72;;;2.22;;
5981;SDS011;3018;48.730;9.336;2023-11-21T11:47:43;1.48;;;1.48;;
5981;SDS011;3018;48.730;9.336;2023-11-21T11:50:10;1.42;;;1.33;;
5981;SDS011;3018;48.730;9.336;2023-11-21T11:52:40;1.20;;;1.20;;
5981;SDS011;3018;48.730;9.336;2023-11-21T11:55:08;2.15;;;1.33;;
5981;SDS011;3018;48.730;9.336;2023-11-21T11:57:36;2.00;;;1.10;;
5981;SDS011;3018;48.730;9.336;2023-11-21T12:00:07;1.10;;;1.10;;
5981;SDS011;3018;48.730;9.336;2023-11-21T12:02:35;1.10;;;1.10;;
5981;SDS011;3018;48.730;9.336;2023-11-21T12:05:06;1.58;;;1.05;;
5981;SDS011;3018;48.730;9.336;2023-11-21T12:07:40;3.40;;;0.80;;
5981;SDS011;3018;48.730;9.336;2023-11-21T12:10:07;0.90;;;0.90;;
5981;SDS011;3018;48.730;9.336;2023-11-21T12:12:36;0.85;;;0.82;;
5981;SDS011;3018;48.730;9.336;2023-11-21T12:15:04;0.55;;;0.55;;
5981;SDS011;3018;48.730;9.336;2023-11-21T12:17:30;0.73;;;0.73;;
5981;SDS011;3018;48.730;9.336;2023-11-21T12:20:01;0.70;;;0.70;;
5981;SDS011;3018;48.730;9.336;2023-11-21T12:22:28;3.00;;;0.68;;
5981;SDS011;3018;48.730;9.336;2023-11-21T12:24:57;0.70;;;0.70;;
5981;SDS011;3018;48.730;9.336;2023-11-21T12:27:23;0.95;;;0.73;;
5981;SDS011;3018;48.730;9.336;2023-11-21T12:29:50;0.68;;;0.68;;
5981;SDS011;3018;48.730;9.336;2023-11-21T12:32:16;0.55;;;0.55;;
5981;SDS011;3018;48.730;9.336;2023-11-21T12:34:43;1.33;;;0.63;;
5981;SDS011;3018;48.730;9.336;2023-11-21T12:37:09;0.80;;;0.60;;
5981;SDS011;3018;48.730;9.336;2023-11-21T12:39:36;0.75;;;0.70;;
5981;SDS011;3018;48.730;9.336;2023-11-21T12:42:03;0.77;;;0.77;;
5981;SDS011;3018;48.730;9.336;2023-11-21T12:44:31;1.95;;;1.10;;
5981;SDS011;3018;48.730;9.336;2023-11-21T12:46:57;0.85;;;0.85;;
5981;SDS011;3018;48.730;9.336;2023-11-21T12:49:24;0.93;;;0.93;;
5981;SDS011;3018;48.730;9.336;2023-11-21T12:51:50;1.23;;;1.10;;
5981;SDS011;3018;48.730;9.336;2023-11-21T12:54:16;1.10;;;1.10;;
5981;SDS011;3018;48.730;9.336;2023-11-21T12:56:45;1.45;;;1.35;;
5981;SDS011;3018;48.730;9.336;2023-11-21T12:59:13;1.40;;;1.40;;
5981;SDS011;3018;48.730;9.336;2023-11-21T13:01:41;3.72;;;1.38;;
5981;SDS011;3018;48.730;9.336;2023-11-21T13:04:08;0.95;;;0.95;;
5981;SDS011;3018;48.730;9.336;2023-11-21T13:06:36;1.17;;;1.13;;
5981;SDS011;3018;48.730;9.336;2023-11-21T13:09:06;1.30;;;1.20;;
5981;SDS011;3018;48.730;9.336;2023-11-21T13:11:35;1.15;;;1.15;;
5981;SDS011;3018;48.730;9.336;2023-11-21T13:14:02;3.03;;;1.20;;
5981;SDS011;3018;48.730;9.336;2023-11-21T13:16:30;1.40;;;1.30;;
5981;SDS011;3018;48.730;9.336;2023-11-21T13:18:56;1.20;;;1.20;;
5981;SDS011;3018;48.730;9.336;2023-11-21T13:21:23;1.60;;;1.50;;
5981;SDS011;3018;48.730;9.336;2023-11-21T13:23:49;1.92;;;1.23;;
5981;SDS011;3018;48.730;9.336;2023-11-21T13:26:17;2.58;;;1.13;;
5981;SDS011;3018;48.730;9.336;2023-11-21T13:28:45;1.08;;;1.00;;
5981;SDS011;3018;48.730;9.336;2023-11-21T13:31:12;0.90;;;0.90;;
5981;SDS011;3018;48.730;9.336;2023-11-21T13:33:52;1.42;;;1.42;;
5981;SDS011;3018;48.730;9.336;2023-11-21T13:36:21;1.27;;;1.27;;
5981;SDS011;3018;48.730;9.336;2023-11-21T13:38:48;1.38;;;1.38;;
5981;SDS011;3018;48.730;9.336;2023-11-21T13:41:14;1.50;;;0.85;;
5981;SDS011;3018;48.730;9.336;2023-11-21T13:43:40;1.02;;;1.02;;
5981;SDS011;3018;48.730;9.336;2023-11-21T13:46:09;0.90;;;0.90;;
5981;SDS011;3018;48.730;9.336;2023-11-21T13:48:40;0.82;;;0.82;;
5981;SDS011;3018;48.730;9.336;2023-11-21T13:51:09;0.80;;;0.80;;
5981;SDS011;3018;48.730;9.336;2023-11-21T13:53:42;1.20;;;1.20;;
5981;SDS011;3018;48.730;9.336;2023-11-21T13:56:08;0.80;;;0.80;;
5981;SDS011;3018;48.730;9.336;2023-11-21T13:58:34;1.10;;;1.10;;
5981;SDS011;3018;48.730;9.336;2023-11-21T14:01:09;1.00;;;1.00;;
5981;SDS011;3018;48.730;9.336;2023-11-21T14:03:49;1.00;;;1.00;;
5981;SDS011;3018;48.730;9.336;2023-11-21T14:06:23;1.30;;;1.30;;
5981;SDS011;3018;48.730;9.336;2023-11-21T14:08:55;1.17;;;1.13;;
5981;SDS011;3018;48.730;9.336;2023-11-21T14:11:22;1.40;;;1.30;;
5981;SDS011;3018;48.730;9.336;2023-11-21T14:13:49;1.10;;;1.10;;
5981;SDS011;3018;48.730;9.336;2023-11-21T14:16:15;0.95;;;0.95;;
5981;SDS011;3018;48.730;9.336;2023-11-21T14:18:43;1.10;;;1.10;;
5981;SDS011;3018;48.730;9.336;2023-11-21T14:21:17;1.48;;;1.42;;
5981;SDS011;3018;48.730;9.336;2023-11-21T14:23:45;1.20;;;1.20;;
5981;SDS011;3018;48.730;9.336;2023-11-21T14:26:13;1.50;;;1.50;;
5981;SDS011;3018;48.730;9.336;2023-11-21T14:28:40;1.30;;;1.20;;
5981;SDS011;3018;48.730;9.336;2023-11-21T14:31:06;1.10;;;1.10;;
5981;SDS011;3018;48.730;9.336;2023-11-21T14:33:33;1.10;;;1.10;;
5981;SDS011;3018;48.730;9.336;2023-11-21T14:35:59;1.27;;;1.23;;
5981;SDS011;3018;48.730;9.336;2023-11-21T14:38:26;1.23;;;1.23;;
5981;SDS011;3018;48.730;9.336;2023-11-21T14:40:54;1.52;;;1.52;;
5981;SDS011;3018;48.730;9.336;2023-11-21T14:43:22;1.45;;;1.45;;
5981;SDS011;3018;48.730;9.336;2023-11-21T14:45:49;0.90;;;0.90;;
5981;SDS011;3018;48.730;9.336;2023-11-21T14:48:16;1.33;;;1.20;;
5981;SDS011;3018;48.730;9.336;2023-11-21T14:50:53;1.48;;;1.00;;
5981;SDS011;3018;48.730;9.336;2023-11-21T14:53:36;1.00;;;1.00;;
5981;SDS011;3018;48.730;9.336;2023-11-21T14:56:19;1.10;;;1.10;;
5981;SDS011;3018;48.730;9.336;2023-11-21T14:58:51;2.03;;;1.92;;
5981;SDS011;3018;48.730;9.336;2023-11-21T15:01:17;2.60;;;2.50;;
5981;SDS011;3018;48.730;9.336;2023-11-21T15:03:51;2.25;;;2.17;;
5981;SDS011;3018;48.730;9.336;2023-11-21T15:06:20;2.03;;;1.92;;
5981;SDS011;3018;48.730;9.336;2023-11-21T15:08:52;1.30;;;1.30;;
5981;SDS011;3018;48.730;9.336;2023-11-21T15:11:25;1.05;;;1.02;;
5981;SDS011;3018;48.730;9.336;2023-11-21T15:13:55;1.45;;;0.80;;
5981;SDS011;3018;48.730;9.336;2023-11-21T15:16:22;0.93;;;0.93;;
5981;SDS011;3018;48.730;9.336;2023-11-21T15:18:48;0.90;;;0.88;;
5981;SDS011;3018;48.730;9.336;2023-11-21T15:21:14;0.80;;;0.80;;